Quinter, Kansas
Current Conditions -  °F | °C
As of 8:53 AM on Sunday 23 Nov 2014 (Local Time) from KHLC Reporting Station
Overcast Overcast  
Wind Chill: 37°   Ceiling: 8000
Heat Index: 46°   Visibility: 10mi
Dew Point: 31°   Wind: 31mph
Humidity: 56%   Direction: 360°N
Pressure: 29.61"   Gusts: 39mph
Location:  39.07°N, 100.23°W
Report Text: KHLC 231453Z AUTO 36027G34KT 10SM FEW060 BKN080 OVC100 08/M01 A2961 RMK AO2 PK WND 36034/1453 RAB43E50 SLP024 P0000 60000 T00781006 53042
Loading
Personal Weather Stations






























Interactive Weather Map New forecast layout! Learn more

10-Day Weather Forecast

Advertisements
Track Severe Weather on mobile